METAR Data
IDs: Format: Raw Decoded Include TAF

Data at: 0125 UTC 22 Sep 2018

ETSI 220020Z AUTO 26007KT 9000 // ////// 13/08 Q1022 ///